Banstead, United Kingdom
Current Conditions -  °F | °C
As of 8:20 PM on Friday 21 Nov 2014 (Local Time) from EGKB Reporting Station
Haze Haze  
Wind Chill: 43°   Ceiling: Unl
Heat Index: 46°   Visibility: 1.5mi
Dew Point: 45°   Wind: 7mph
Humidity: 93%   Direction: 130°SE
Pressure: 29.94"   Gusts: NA
Location:  51.3°N, 0.2°W
Report Text: EGKB 212020Z 13006KT 100V160 2500 HZ SCT005 08/07 Q1014
Loading
Personal Weather Stations






























Interactive Weather Map New forecast layout! Learn more

10-Day Weather Forecast

Advertisements
Track Severe Weather on mobile